createdAt,value
2023-05-08T00:00:58.701Z,81.56
2023-05-08T00:03:25.209Z,81.63
2023-05-08T00:05:51.677Z,81.49
2023-05-08T00:08:17.982Z,82.10
2023-05-08T00:10:44.286Z,82.39
2023-05-08T00:13:10.598Z,82.65
2023-05-08T00:15:37.004Z,82.11
2023-05-08T00:18:03.450Z,82.26
2023-05-08T00:20:29.818Z,82.41
2023-05-08T00:22:56.132Z,82.28
2023-05-08T00:25:22.467Z,82.28
2023-05-08T00:27:48.804Z,82.06
2023-05-08T00:30:15.388Z,82.78
2023-05-08T00:32:41.737Z,82.13
2023-05-08T00:35:08.448Z,81.54
2023-05-08T00:37:35.091Z,81.80
2023-05-08T00:40:01.387Z,81.54
2023-05-08T00:42:27.711Z,81.20
2023-05-08T00:44:54.016Z,80.24
2023-05-08T00:47:21.481Z,80.85
2023-05-08T00:49:48.292Z,80.70
2023-05-08T00:52:14.967Z,79.89
2023-05-08T00:54:41.608Z,80.22
2023-05-08T00:57:08.042Z,80.86
2023-05-08T00:59:36.775Z,81.20
2023-05-08T01:02:03.626Z,80.59
2023-05-08T01:04:31.456Z,80.63
2023-05-08T01:06:57.890Z,80.56
2023-05-08T01:09:24.198Z,81.01
2023-05-08T01:12:23.309Z,79.82
2023-05-08T01:14:55.417Z,80.47
2023-05-08T01:18:03.904Z,80.63
2023-05-08T01:20:59.603Z,81.01
2023-05-08T01:23:44.507Z,81.50
2023-05-08T01:26:55.112Z,82.35
2023-05-08T01:29:58.964Z,81.61
2023-05-08T01:32:29.880Z,81.12
2023-05-08T01:35:52.094Z,81.22
2023-05-08T01:38:25.120Z,81.34
2023-05-08T01:41:01.921Z,81.34
2023-05-08T01:43:35.604Z,81.61
2023-05-08T01:46:09.671Z,81.67
2023-05-08T01:48:43.948Z,81.55
2023-05-08T01:51:19.499Z,81.85
2023-05-08T01:53:50.976Z,82.14
2023-05-08T01:56:21.711Z,81.87
2023-05-08T01:58:51.159Z,81.85
2023-05-08T02:01:20.956Z,81.72
2023-05-08T02:03:48.826Z,81.83
2023-05-08T02:06:17.977Z,81.40
2023-05-08T02:08:45.474Z,81.14
2023-05-08T02:11:14.276Z,81.27
2023-05-08T02:13:42.587Z,82.11
2023-05-08T02:16:11.070Z,81.54
2023-05-08T02:18:40.786Z,81.76
2023-05-08T02:21:08.565Z,81.82
2023-05-08T02:23:35.538Z,82.11
2023-05-08T02:26:04.505Z,82.81
2023-05-08T02:28:32.805Z,82.71
2023-05-08T02:31:00.643Z,81.81
2023-05-08T02:33:29.575Z,82.64
2023-05-08T02:35:57.252Z,82.29
2023-05-08T02:38:25.736Z,82.94
2023-05-08T02:40:58.112Z,82.18
2023-05-08T02:43:24.567Z,82.99
2023-05-08T02:46:14.094Z,83.42
2023-05-08T02:48:55.350Z,83.71
2023-05-08T02:51:43.924Z,84.26
2023-05-08T02:54:14.413Z,84.65
2023-05-08T02:56:59.967Z,84.84
2023-05-08T02:59:35.589Z,85.01
2023-05-08T03:02:22.079Z,84.84
2023-05-08T03:04:56.412Z,85.12
2023-05-08T03:07:25.811Z,85.52
2023-05-08T03:09:58.889Z,85.21
2023-05-08T03:12:28.775Z,85.69
2023-05-08T03:15:07.501Z,84.95
2023-05-08T03:17:36.788Z,85.54
2023-05-08T03:20:06.723Z,85.68
2023-05-08T03:22:36.708Z,85.18
2023-05-08T03:25:05.646Z,85.44
2023-05-08T03:27:32.969Z,86.38
2023-05-08T03:30:01.889Z,86.02
2023-05-08T03:32:29.658Z,85.89
2023-05-08T03:34:59.061Z,86.44
2023-05-08T03:37:27.844Z,86.23
2023-05-08T03:39:55.544Z,85.97
2023-05-08T03:42:23.896Z,86.27
2023-05-08T03:44:51.135Z,86.21
2023-05-08T03:47:18.840Z,85.56
2023-05-08T03:49:47.034Z,85.42
2023-05-08T03:52:14.211Z,85.14
2023-05-08T03:54:40.786Z,85.26
2023-05-08T03:57:07.272Z,85.05
2023-05-08T03:59:46.126Z,84.48
2023-05-08T04:02:39.397Z,84.54
2023-05-08T04:05:25.203Z,84.54
2023-05-08T04:07:57.009Z,85.20
2023-05-08T04:10:32.600Z,84.62
2023-05-08T04:13:08.597Z,84.51
2023-05-08T04:15:52.617Z,84.91
2023-05-08T04:18:24.344Z,84.92
2023-05-08T04:20:55.470Z,84.61
2023-05-08T04:23:24.337Z,84.65
2023-05-08T04:25:52.180Z,84.83
2023-05-08T04:28:19.391Z,84.92
2023-05-08T04:30:46.137Z,84.76
2023-05-08T04:33:13.856Z,84.74
2023-05-08T04:35:40.262Z,84.40
2023-05-08T04:38:06.623Z,83.99
2023-05-08T04:40:32.952Z,83.56
2023-05-08T04:42:59.385Z,83.07
2023-05-08T04:45:25.682Z,81.90
2023-05-08T04:47:52.036Z,81.84
2023-05-08T04:50:18.443Z,81.85
2023-05-08T04:52:44.765Z,81.71
2023-05-08T04:55:11.340Z,81.58
2023-05-08T04:57:37.831Z,81.24
2023-05-08T05:00:04.560Z,80.81
2023-05-08T05:02:30.909Z,79.67
2023-05-08T05:04:57.252Z,79.86
2023-05-08T05:07:23.556Z,79.98
2023-05-08T05:09:50.027Z,80.44
2023-05-08T05:12:16.369Z,79.78
2023-05-08T05:14:42.669Z,80.64
2023-05-08T05:17:08.977Z,79.72
2023-05-08T05:19:35.302Z,80.55
2023-05-08T05:22:01.683Z,78.86
2023-05-08T05:24:28.015Z,72.49
2023-05-08T05:26:54.348Z,68.92
2023-05-08T05:29:20.685Z,67.99
2023-05-08T05:31:47.026Z,68.14
2023-05-08T05:34:13.346Z,68.59
2023-05-08T05:36:39.661Z,66.59
2023-05-08T05:39:05.963Z,64.95
2023-05-08T05:41:32.377Z,67.03
2023-05-08T05:43:58.689Z,66.14
2023-05-08T05:46:25.062Z,63.89
2023-05-08T05:48:51.374Z,63.44
2023-05-08T05:51:17.684Z,63.93
2023-05-08T05:53:43.981Z,64.87
2023-05-08T05:56:10.294Z,65.72
2023-05-08T05:58:36.605Z,64.26
2023-05-08T06:01:03.206Z,63.04
2023-05-08T06:03:29.601Z,62.98
2023-05-08T06:05:56.658Z,60.60
2023-05-08T06:08:23.119Z,57.90
2023-05-08T06:10:49.519Z,57.46
2023-05-08T06:13:15.870Z,55.73
2023-05-08T06:15:42.262Z,55.60
2023-05-08T06:18:08.612Z,54.30
2023-05-08T06:20:37.582Z,53.17
2023-05-08T06:23:04.241Z,52.64
2023-05-08T06:25:30.691Z,53.52
2023-05-08T06:27:57.284Z,51.97
2023-05-08T06:30:23.577Z,51.46
2023-05-08T06:32:50.019Z,51.53
2023-05-08T06:35:16.539Z,51.20
2023-05-08T06:37:42.877Z,52.92
2023-05-08T06:40:12.281Z,55.74
2023-05-08T06:42:39.630Z,58.03
2023-05-08T06:45:06.731Z,60.46
2023-05-08T06:47:33.146Z,62.97
2023-05-08T06:50:00.631Z,63.32
2023-05-08T06:52:26.979Z,64.20
2023-05-08T06:54:53.281Z,65.16
2023-05-08T06:57:19.609Z,67.31
2023-05-08T06:59:45.960Z,66.14
2023-05-08T07:02:12.327Z,65.72
2023-05-08T07:04:38.744Z,64.27
2023-05-08T07:07:05.060Z,64.26
2023-05-08T07:09:31.381Z,63.24
2023-05-08T07:11:57.698Z,63.72
2023-05-08T07:14:24.010Z,64.81
2023-05-08T07:16:50.302Z,64.04
2023-05-08T07:19:16.630Z,63.12
2023-05-08T07:21:42.984Z,63.37
2023-05-08T07:24:09.436Z,63.35
2023-05-08T07:26:35.755Z,62.78
2023-05-08T07:29:02.075Z,63.98
2023-05-08T07:31:28.553Z,63.40
2023-05-08T07:33:54.845Z,62.30
2023-05-08T07:36:21.147Z,60.95
2023-05-08T07:38:47.462Z,61.01
2023-05-08T07:41:13.845Z,60.34
2023-05-08T07:43:40.207Z,61.55
2023-05-08T07:46:06.554Z,62.81
2023-05-08T07:48:33.025Z,61.39
2023-05-08T07:50:59.399Z,62.25
2023-05-08T07:53:25.703Z,62.88
2023-05-08T07:55:52.009Z,63.21
2023-05-08T07:58:18.314Z,61.50
2023-05-08T08:00:44.636Z,62.64
2023-05-08T08:03:11.017Z,63.39
2023-05-08T08:05:37.354Z,63.00
2023-05-08T08:08:03.734Z,62.52
2023-05-08T08:10:30.130Z,63.05
2023-05-08T08:12:56.466Z,62.72
2023-05-08T08:15:22.887Z,63.83
2023-05-08T08:17:49.279Z,62.41
2023-05-08T08:20:15.694Z,62.26
2023-05-08T08:22:42.022Z,62.68
2023-05-08T08:25:08.852Z,60.19
2023-05-08T08:27:35.227Z,62.47
2023-05-08T08:30:12.826Z,62.61
2023-05-08T08:32:42.075Z,62.56
2023-05-08T08:35:08.950Z,62.02
2023-05-08T08:37:35.256Z,60.78
2023-05-08T08:40:02.039Z,60.54
2023-05-08T08:42:28.817Z,61.39
2023-05-08T08:44:56.160Z,59.29
2023-05-08T08:47:27.107Z,60.28
2023-05-08T08:49:54.896Z,61.14
2023-05-08T08:52:30.337Z,60.63
2023-05-08T08:54:58.686Z,59.59
2023-05-08T08:57:27.405Z,59.61
2023-05-08T08:59:55.704Z,57.82
2023-05-08T09:02:23.274Z,59.50
2023-05-08T09:04:50.106Z,58.89
2023-05-08T09:07:17.808Z,59.08
2023-05-08T09:09:44.555Z,58.00
2023-05-08T09:12:13.100Z,58.13
2023-05-08T09:14:39.418Z,59.98
2023-05-08T09:17:05.787Z,57.77
2023-05-08T09:19:33.437Z,58.72
2023-05-08T09:22:00.523Z,57.02
2023-05-08T09:24:47.063Z,56.28
2023-05-08T09:27:20.963Z,56.91
2023-05-08T09:29:59.611Z,59.60
2023-05-08T09:32:25.970Z,57.31
2023-05-08T09:34:52.733Z,56.42
2023-05-08T09:37:19.134Z,56.63
2023-05-08T09:39:45.448Z,56.12
2023-05-08T09:42:11.830Z,57.07
2023-05-08T09:44:52.824Z,56.70
2023-05-08T09:47:21.433Z,57.67
2023-05-08T09:50:00.923Z,56.67
2023-05-08T09:52:29.016Z,56.10
2023-05-08T09:55:00.135Z,56.18
2023-05-08T09:57:27.061Z,55.39
2023-05-08T10:00:06.261Z,56.15
2023-05-08T10:02:32.864Z,56.02
2023-05-08T10:04:59.243Z,55.38
2023-05-08T10:07:30.504Z,55.25
2023-05-08T10:10:05.245Z,55.34
2023-05-08T10:12:32.273Z,57.30
2023-05-08T10:14:59.168Z,56.85
2023-05-08T10:17:29.565Z,56.62
2023-05-08T10:19:59.821Z,56.44
2023-05-08T10:22:27.823Z,55.45
2023-05-08T10:24:57.264Z,56.71
2023-05-08T10:27:31.292Z,57.77
2023-05-08T10:30:02.126Z,57.71
2023-05-08T10:32:35.158Z,56.21
2023-05-08T10:35:04.086Z,58.16
2023-05-08T10:37:30.574Z,58.18
2023-05-08T10:39:57.984Z,57.45
2023-05-08T10:42:25.906Z,57.01
2023-05-08T10:44:53.462Z,56.35
2023-05-08T10:47:36.286Z,56.55
2023-05-08T10:50:26.332Z,59.42
2023-05-08T10:53:06.459Z,56.10
2023-05-08T10:55:37.007Z,55.81
2023-05-08T10:58:04.157Z,56.59
2023-05-08T11:00:53.538Z,55.54
2023-05-08T11:03:30.430Z,53.28
2023-05-08T11:06:00.983Z,54.79
2023-05-08T11:08:29.418Z,53.42
2023-05-08T11:11:14.590Z,53.49
2023-05-08T11:13:48.444Z,53.01
2023-05-08T11:16:17.923Z,54.01
2023-05-08T11:19:35.419Z,54.19
2023-05-08T11:22:31.579Z,55.19
2023-05-08T11:25:11.549Z,54.50
2023-05-08T11:27:39.522Z,55.18
2023-05-08T11:30:40.381Z,54.65
2023-05-08T11:33:06.725Z,54.74
2023-05-08T11:35:51.890Z,53.90
2023-05-08T11:38:22.906Z,53.76
2023-05-08T11:40:53.932Z,53.95
2023-05-08T11:43:27.255Z,55.00
2023-05-08T11:45:54.427Z,55.80
2023-05-08T11:48:20.813Z,53.97
2023-05-08T11:50:47.250Z,51.54
2023-05-08T11:53:13.682Z,52.46
2023-05-08T11:55:40.146Z,52.69
2023-05-08T11:58:16.241Z,52.91
2023-05-08T12:00:43.951Z,50.69
2023-05-08T12:03:14.648Z,51.39
2023-05-08T12:05:41.777Z,46.70
2023-05-08T12:08:09.042Z,48.19
2023-05-08T12:10:49.848Z,48.29
2023-05-08T12:13:23.254Z,48.60
2023-05-08T12:15:55.138Z,49.05
2023-05-08T12:18:22.796Z,50.44
2023-05-08T12:20:59.801Z,47.82
2023-05-08T12:23:27.091Z,47.74
2023-05-08T12:25:55.144Z,47.10
2023-05-08T12:28:21.890Z,48.64
2023-05-08T12:30:48.351Z,47.74
2023-05-08T12:33:15.043Z,47.70
2023-05-08T12:35:41.686Z,48.09
2023-05-08T12:38:08.801Z,49.50
2023-05-08T12:40:43.282Z,45.84
2023-05-08T12:43:10.310Z,47.02
2023-05-08T12:45:38.509Z,46.14
2023-05-08T12:48:10.273Z,47.63
2023-05-08T12:50:39.491Z,48.07
2023-05-08T12:53:10.823Z,45.23
2023-05-08T12:55:39.016Z,47.67
2023-05-08T12:58:06.549Z,47.03
2023-05-08T13:00:40.834Z,47.74
2023-05-08T13:03:08.701Z,49.69
2023-05-08T13:05:37.119Z,49.62
2023-05-08T13:08:05.676Z,48.50
2023-05-08T13:10:51.450Z,47.86
2023-05-08T13:13:20.176Z,47.66
2023-05-08T13:15:47.504Z,48.01
2023-05-08T13:18:14.687Z,46.50
2023-05-08T13:20:41.648Z,46.91
2023-05-08T13:23:08.708Z,48.08
2023-05-08T13:25:39.914Z,50.26
2023-05-08T13:28:07.698Z,50.20
2023-05-08T13:30:35.260Z,49.19
2023-05-08T13:33:01.695Z,48.52
2023-05-08T13:35:28.389Z,50.34
2023-05-08T13:37:55.427Z,45.83
2023-05-08T13:40:21.753Z,46.18
2023-05-08T13:42:48.084Z,44.29
2023-05-08T13:45:15.112Z,47.13
2023-05-08T13:47:42.445Z,46.16
2023-05-08T13:50:10.337Z,46.63
2023-05-08T13:52:37.335Z,46.21
2023-05-08T13:55:12.337Z,44.85
2023-05-08T13:57:39.618Z,43.74
2023-05-08T14:00:07.385Z,47.09
2023-05-08T14:02:33.902Z,45.31
2023-05-08T14:05:00.299Z,44.17
2023-05-08T14:07:26.672Z,45.47
2023-05-08T14:09:52.979Z,46.58
2023-05-08T14:12:19.291Z,47.34
2023-05-08T14:14:45.625Z,49.14
2023-05-08T14:17:11.948Z,49.25
2023-05-08T14:19:38.311Z,49.26
2023-05-08T14:22:04.722Z,49.96
2023-05-08T14:24:31.017Z,49.37
2023-05-08T14:26:57.324Z,49.76
2023-05-08T14:29:23.634Z,46.87
2023-05-08T14:31:50.061Z,45.84
2023-05-08T14:34:16.391Z,48.22
2023-05-08T14:36:42.804Z,49.05
2023-05-08T14:39:09.172Z,47.48
2023-05-08T14:41:35.518Z,48.36
2023-05-08T14:44:01.840Z,48.00
2023-05-08T14:46:28.166Z,48.98
2023-05-08T14:48:54.960Z,49.63
2023-05-08T14:51:23.126Z,50.50
2023-05-08T14:53:49.631Z,50.77
2023-05-08T14:56:16.069Z,49.78
2023-05-08T14:58:42.457Z,51.40
2023-05-08T15:01:08.782Z,48.34
2023-05-08T15:03:35.233Z,50.26
2023-05-08T15:06:01.687Z,49.46
2023-05-08T15:08:28.073Z,48.67
2023-05-08T15:10:54.374Z,47.77
2023-05-08T15:13:20.764Z,48.21
2023-05-08T15:15:47.077Z,47.01
2023-05-08T15:18:13.388Z,46.85
2023-05-08T15:20:39.684Z,46.47
2023-05-08T15:23:06.075Z,47.92
2023-05-08T15:25:32.372Z,47.99
2023-05-08T15:28:00.471Z,46.85
2023-05-08T15:30:26.968Z,48.06
2023-05-08T15:32:53.422Z,45.98
2023-05-08T15:35:19.790Z,48.05
2023-05-08T15:37:46.133Z,47.47
2023-05-08T15:40:12.786Z,47.95
2023-05-08T15:42:39.110Z,46.70
2023-05-08T15:45:05.851Z,47.51
2023-05-08T15:47:32.167Z,47.59
2023-05-08T15:49:58.549Z,48.06
2023-05-08T15:52:24.842Z,49.60
2023-05-08T15:54:51.191Z,51.96
2023-05-08T15:57:17.523Z,52.96
2023-05-08T15:59:43.920Z,52.95
2023-05-08T16:02:10.310Z,54.67
2023-05-08T16:04:36.758Z,54.88
2023-05-08T16:07:03.077Z,55.49
2023-05-08T16:09:29.393Z,55.62
2023-05-08T16:11:55.794Z,57.09
2023-05-08T16:14:22.116Z,57.98
2023-05-08T16:16:48.516Z,59.73
2023-05-08T16:19:14.879Z,60.20
2023-05-08T16:21:41.258Z,60.98
2023-05-08T16:24:07.587Z,61.94
2023-05-08T16:26:33.892Z,62.14
2023-05-08T16:29:00.193Z,62.44
2023-05-08T16:31:26.568Z,62.56
2023-05-08T16:33:52.906Z,63.62
2023-05-08T16:36:19.245Z,63.31
2023-05-08T16:38:45.590Z,62.93
2023-05-08T16:41:11.886Z,62.54
2023-05-08T16:43:38.189Z,63.03
2023-05-08T16:46:07.749Z,61.95
2023-05-08T16:48:34.501Z,62.41
2023-05-08T16:51:00.829Z,62.59
2023-05-08T16:53:27.125Z,64.17
2023-05-08T16:55:54.699Z,65.23
2023-05-08T16:58:21.068Z,65.16
2023-05-08T17:00:47.460Z,64.97
2023-05-08T17:03:13.949Z,65.05
2023-05-08T17:05:40.373Z,65.45
2023-05-08T17:08:06.682Z,66.63
2023-05-08T17:10:32.993Z,67.22
2023-05-08T17:12:59.320Z,67.75
2023-05-08T17:15:25.668Z,68.14
2023-05-08T17:17:52.002Z,68.89
2023-05-08T17:20:18.351Z,70.55
2023-05-08T17:22:44.663Z,70.52
2023-05-08T17:25:11.017Z,71.13
2023-05-08T17:27:37.332Z,71.85
2023-05-08T17:30:04.218Z,72.53
2023-05-08T17:32:30.583Z,72.69
2023-05-08T17:34:56.926Z,72.55
2023-05-08T17:37:23.222Z,71.61
2023-05-08T17:39:49.535Z,70.65
2023-05-08T17:42:15.840Z,70.44
2023-05-08T17:44:42.157Z,70.56
2023-05-08T17:47:08.532Z,71.26
2023-05-08T17:49:34.882Z,71.46
2023-05-08T17:52:01.191Z,71.42
2023-05-08T17:54:27.494Z,71.46
2023-05-08T17:56:53.795Z,71.57
2023-05-08T17:59:20.108Z,71.87
2023-05-08T18:01:46.536Z,72.38
2023-05-08T18:04:13.000Z,70.98
2023-05-08T18:06:39.365Z,72.19
2023-05-08T18:09:05.668Z,71.99
2023-05-08T18:11:31.990Z,71.35
2023-05-08T18:13:58.311Z,71.46
2023-05-08T18:16:24.751Z,72.33
2023-05-08T18:18:51.111Z,72.98
2023-05-08T18:21:17.585Z,73.85
2023-05-08T18:23:44.244Z,75.89
2023-05-08T18:26:16.952Z,77.15
2023-05-08T18:28:43.893Z,78.51
2023-05-08T18:31:10.338Z,78.63
2023-05-08T18:33:36.728Z,78.38
2023-05-08T18:36:03.492Z,78.42
2023-05-08T18:38:29.810Z,79.55
2023-05-08T18:40:56.130Z,80.97
2023-05-08T18:43:22.485Z,81.76
2023-05-08T18:45:48.782Z,81.96
2023-05-08T18:48:15.090Z,81.74
2023-05-08T18:50:41.389Z,81.69
2023-05-08T18:53:07.703Z,81.38
2023-05-08T18:55:34.013Z,81.14
2023-05-08T18:58:00.346Z,80.25
2023-05-08T19:00:26.726Z,79.98
2023-05-08T19:02:53.207Z,80.99
2023-05-08T19:05:19.680Z,81.21
2023-05-08T19:07:45.998Z,80.42
2023-05-08T19:10:12.503Z,80.39
2023-05-08T19:12:39.136Z,80.65
2023-05-08T19:15:05.996Z,80.53
2023-05-08T19:17:32.380Z,80.57
2023-05-08T19:19:58.695Z,79.76
2023-05-08T19:22:25.001Z,78.53
2023-05-08T19:24:51.306Z,78.74
2023-05-08T19:27:17.794Z,78.42
2023-05-08T19:29:44.142Z,78.49
2023-05-08T19:32:10.452Z,78.25
2023-05-08T19:34:36.828Z,78.28
2023-05-08T19:37:03.257Z,77.37
2023-05-08T19:39:29.592Z,77.73
2023-05-08T19:41:55.924Z,78.20
2023-05-08T19:44:22.254Z,79.12
2023-05-08T19:46:50.665Z,80.15
2023-05-08T19:49:16.999Z,80.95
2023-05-08T19:51:43.435Z,81.37
2023-05-08T19:54:09.978Z,82.14
2023-05-08T19:56:36.289Z,82.66
2023-05-08T19:59:02.617Z,83.33
2023-05-08T20:01:28.969Z,83.48
2023-05-08T20:03:57.412Z,84.62
2023-05-08T20:06:25.314Z,85.36
2023-05-08T20:08:51.650Z,85.02
2023-05-08T20:11:17.980Z,85.00
2023-05-08T20:13:44.309Z,85.41
2023-05-08T20:16:10.662Z,85.79
2023-05-08T20:18:37.050Z,86.42
2023-05-08T20:21:03.507Z,86.35
2023-05-08T20:23:29.970Z,85.86
2023-05-08T20:25:56.297Z,85.97
2023-05-08T20:28:22.667Z,87.07
2023-05-08T20:30:49.436Z,87.25
2023-05-08T20:33:15.884Z,87.80
2023-05-08T20:35:42.269Z,87.22
2023-05-08T20:38:08.611Z,86.56
2023-05-08T20:40:34.978Z,84.60
2023-05-08T20:43:01.332Z,84.42
2023-05-08T20:45:27.752Z,83.48
2023-05-08T20:47:54.149Z,81.87
2023-05-08T20:50:20.596Z,80.82
2023-05-08T20:52:46.915Z,79.22
2023-05-08T20:55:13.389Z,78.64
2023-05-08T20:57:39.890Z,78.00
2023-05-08T21:00:06.957Z,77.96
2023-05-08T21:02:33.296Z,76.00
2023-05-08T21:04:59.653Z,76.25
2023-05-08T21:07:26.086Z,76.07
2023-05-08T21:09:52.408Z,76.03
2023-05-08T21:12:18.729Z,74.99
2023-05-08T21:14:45.137Z,74.77
2023-05-08T21:17:11.453Z,73.76
2023-05-08T21:19:37.792Z,73.60
2023-05-08T21:22:04.111Z,74.32
2023-05-08T21:24:30.523Z,74.19
2023-05-08T21:26:56.842Z,74.27
2023-05-08T21:29:23.179Z,73.26
2023-05-08T21:31:49.583Z,72.98
2023-05-08T21:34:16.361Z,73.00
2023-05-08T21:36:42.735Z,72.90
2023-05-08T21:39:09.054Z,72.97
2023-05-08T21:41:35.368Z,72.35
2023-05-08T21:44:01.763Z,72.14
2023-05-08T21:46:28.093Z,72.50
2023-05-08T21:48:54.437Z,72.12
2023-05-08T21:51:20.854Z,71.85
2023-05-08T21:53:47.195Z,71.66
2023-05-08T21:56:13.493Z,71.49
2023-05-08T21:58:39.840Z,71.75
2023-05-08T22:01:06.178Z,70.67
2023-05-08T22:03:32.648Z,71.73
2023-05-08T22:05:59.044Z,72.27
2023-05-08T22:08:25.442Z,71.84
2023-05-08T22:10:51.802Z,71.89
2023-05-08T22:13:18.151Z,71.54
2023-05-08T22:15:44.600Z,71.31
2023-05-08T22:18:10.906Z,71.40
2023-05-08T22:20:37.325Z,71.71
2023-05-08T22:23:03.654Z,72.01
2023-05-08T22:25:29.966Z,72.06
2023-05-08T22:27:56.265Z,72.24
2023-05-08T22:30:22.670Z,71.95
2023-05-08T22:32:54.843Z,71.58
2023-05-08T22:35:22.993Z,71.90
2023-05-08T22:37:49.400Z,72.21
2023-05-08T22:40:15.877Z,72.28
2023-05-08T22:42:42.900Z,72.19
2023-05-08T22:45:10.175Z,71.97
2023-05-08T22:47:36.719Z,72.06
2023-05-08T22:50:03.282Z,72.16
2023-05-08T22:52:29.644Z,71.92
2023-05-08T22:54:55.962Z,72.21
2023-05-08T22:57:22.279Z,72.06
2023-05-08T22:59:48.582Z,71.98
2023-05-08T23:02:14.898Z,71.90
2023-05-08T23:04:41.222Z,71.94
2023-05-08T23:07:07.547Z,72.08
2023-05-08T23:09:33.868Z,71.72
2023-05-08T23:12:00.164Z,71.40
2023-05-08T23:14:26.523Z,71.86
2023-05-08T23:16:52.908Z,71.88
2023-05-08T23:19:19.257Z,71.46
2023-05-08T23:21:45.556Z,71.49
2023-05-08T23:24:11.993Z,71.60
2023-05-08T23:26:39.522Z,71.92
2023-05-08T23:29:07.048Z,71.14
2023-05-08T23:31:33.411Z,71.50
2023-05-08T23:33:59.737Z,71.06
2023-05-08T23:36:26.054Z,71.49
2023-05-08T23:38:52.377Z,71.07
2023-05-08T23:41:18.752Z,71.33
2023-05-08T23:43:45.078Z,71.30
2023-05-08T23:46:11.448Z,71.33
2023-05-08T23:48:37.793Z,71.27
2023-05-08T23:51:04.399Z,70.91
2023-05-08T23:53:30.709Z,70.77
2023-05-08T23:55:56.993Z,70.81
2023-05-08T23:58:23.394Z,70.75
